sensor_id;sensor_type;location;lat;lon;timestamp;temperature;humidity
20946;DHT22;10632;51.276;7.116;2022-09-09T00:00:25;14.60;99.90
20946;DHT22;10632;51.276;7.116;2022-09-09T00:03:10;14.60;99.90
20946;DHT22;10632;51.276;7.116;2022-09-09T00:05:46;14.50;99.90
20946;DHT22;10632;51.276;7.116;2022-09-09T00:08:20;14.50;99.90
20946;DHT22;10632;51.276;7.116;2022-09-09T00:10:54;14.50;99.90
20946;DHT22;10632;51.276;7.116;2022-09-09T00:13:28;14.40;99.90
20946;DHT22;10632;51.276;7.116;2022-09-09T00:16:01;14.40;99.90
20946;DHT22;10632;51.276;7.116;2022-09-09T00:18:40;14.40;99.90
20946;DHT22;10632;51.276;7.116;2022-09-09T00:21:13;14.40;99.90
20946;DHT22;10632;51.276;7.116;2022-09-09T00:23:45;14.40;99.90
20946;DHT22;10632;51.276;7.116;2022-09-09T00:26:17;14.40;99.90
20946;DHT22;10632;51.276;7.116;2022-09-09T00:28:50;14.40;99.90
20946;DHT22;10632;51.276;7.116;2022-09-09T00:31:25;14.40;99.90
20946;DHT22;10632;51.276;7.116;2022-09-09T00:33:53;14.40;99.90
20946;DHT22;10632;51.276;7.116;2022-09-09T00:36:24;14.40;99.90
20946;DHT22;10632;51.276;7.116;2022-09-09T00:38:56;14.50;99.90
20946;DHT22;10632;51.276;7.116;2022-09-09T00:41:33;14.50;99.90
20946;DHT22;10632;51.276;7.116;2022-09-09T00:44:20;14.50;99.90
20946;DHT22;10632;51.276;7.116;2022-09-09T00:47:03;14.50;99.90
20946;DHT22;10632;51.276;7.116;2022-09-09T00:49:41;14.50;99.90
20946;DHT22;10632;51.276;7.116;2022-09-09T00:52:23;14.50;99.90
20946;DHT22;10632;51.276;7.116;2022-09-09T00:55:00;14.60;99.90
20946;DHT22;10632;51.276;7.116;2022-09-09T00:57:30;14.60;99.90
20946;DHT22;10632;51.276;7.116;2022-09-09T01:00:14;14.70;99.90
20946;DHT22;10632;51.276;7.116;2022-09-09T01:02:51;14.70;99.90
20946;DHT22;10632;51.276;7.116;2022-09-09T01:05:24;14.70;99.90
20946;DHT22;10632;51.276;7.116;2022-09-09T01:07:54;14.70;99.90
20946;DHT22;10632;51.276;7.116;2022-09-09T01:10:26;14.80;99.90
20946;DHT22;10632;51.276;7.116;2022-09-09T01:12:58;14.80;99.90
20946;DHT22;10632;51.276;7.116;2022-09-09T01:15:30;14.80;99.90
20946;DHT22;10632;51.276;7.116;2022-09-09T01:18:02;14.80;99.90
20946;DHT22;10632;51.276;7.116;2022-09-09T01:20:37;14.80;99.90
20946;DHT22;10632;51.276;7.116;2022-09-09T01:23:19;14.90;99.90
20946;DHT22;10632;51.276;7.116;2022-09-09T01:26:13;14.90;99.90
20946;DHT22;10632;51.276;7.116;2022-09-09T01:28:43;14.90;99.90
20946;DHT22;10632;51.276;7.116;2022-09-09T01:31:14;15.00;99.90
20946;DHT22;10632;51.276;7.116;2022-09-09T01:33:41;14.90;99.90
20946;DHT22;10632;51.276;7.116;2022-09-09T01:36:11;15.00;99.90
20946;DHT22;10632;51.276;7.116;2022-09-09T01:38:39;15.00;99.90
20946;DHT22;10632;51.276;7.116;2022-09-09T01:41:08;15.00;99.90
20946;DHT22;10632;51.276;7.116;2022-09-09T01:43:34;14.90;99.90
20946;DHT22;10632;51.276;7.116;2022-09-09T01:46:01;15.00;99.90
20946;DHT22;10632;51.276;7.116;2022-09-09T01:48:29;14.90;99.90
20946;DHT22;10632;51.276;7.116;2022-09-09T01:50:56;14.90;99.90
20946;DHT22;10632;51.276;7.116;2022-09-09T01:53:23;15.00;99.90
20946;DHT22;10632;51.276;7.116;2022-09-09T01:55:58;15.00;99.90
20946;DHT22;10632;51.276;7.116;2022-09-09T01:58:37;15.00;99.90
20946;DHT22;10632;51.276;7.116;2022-09-09T02:01:15;14.90;99.90
20946;DHT22;10632;51.276;7.116;2022-09-09T02:03:49;14.90;99.90
20946;DHT22;10632;51.276;7.116;2022-09-09T02:06:27;14.90;99.90
20946;DHT22;10632;51.276;7.116;2022-09-09T02:09:07;14.90;99.90
20946;DHT22;10632;51.276;7.116;2022-09-09T02:11:37;14.90;99.90
20946;DHT22;10632;51.276;7.116;2022-09-09T02:14:24;14.90;99.90
20946;DHT22;10632;51.276;7.116;2022-09-09T02:16:56;14.80;99.90
20946;DHT22;10632;51.276;7.116;2022-09-09T02:19:28;14.80;99.90
20946;DHT22;10632;51.276;7.116;2022-09-09T02:22:05;14.80;99.90
20946;DHT22;10632;51.276;7.116;2022-09-09T02:24:39;14.80;99.90
20946;DHT22;10632;51.276;7.116;2022-09-09T02:27:08;14.80;99.90
20946;DHT22;10632;51.276;7.116;2022-09-09T02:29:40;14.70;99.90
20946;DHT22;10632;51.276;7.116;2022-09-09T02:32:11;14.70;99.90
20946;DHT22;10632;51.276;7.116;2022-09-09T02:34:43;14.70;99.90
20946;DHT22;10632;51.276;7.116;2022-09-09T02:37:14;14.70;99.90
20946;DHT22;10632;51.276;7.116;2022-09-09T02:39:43;14.70;99.90
20946;DHT22;10632;51.276;7.116;2022-09-09T02:42:10;14.70;99.90
20946;DHT22;10632;51.276;7.116;2022-09-09T02:44:41;14.70;99.90
20946;DHT22;10632;51.276;7.116;2022-09-09T02:47:25;14.70;99.90
20946;DHT22;10632;51.276;7.116;2022-09-09T02:50:12;14.70;99.90
20946;DHT22;10632;51.276;7.116;2022-09-09T02:53:00;14.60;99.90
20946;DHT22;10632;51.276;7.116;2022-09-09T02:55:39;14.60;99.90
20946;DHT22;10632;51.276;7.116;2022-09-09T02:58:16;14.60;99.90
20946;DHT22;10632;51.276;7.116;2022-09-09T03:01:00;14.60;99.90
20946;DHT22;10632;51.276;7.116;2022-09-09T03:03:32;14.60;99.90
20946;DHT22;10632;51.276;7.116;2022-09-09T03:06:09;14.60;99.90
20946;DHT22;10632;51.276;7.116;2022-09-09T03:08:42;14.60;99.90
20946;DHT22;10632;51.276;7.116;2022-09-09T03:11:17;14.60;99.90
20946;DHT22;10632;51.276;7.116;2022-09-09T03:13:47;14.60;99.90
20946;DHT22;10632;51.276;7.116;2022-09-09T03:16:19;14.60;99.90
20946;DHT22;10632;51.276;7.116;2022-09-09T03:18:47;14.60;99.90
20946;DHT22;10632;51.276;7.116;2022-09-09T03:21:13;14.60;99.90
20946;DHT22;10632;51.276;7.116;2022-09-09T03:23:41;14.60;99.90
20946;DHT22;10632;51.276;7.116;2022-09-09T03:26:08;14.60;99.90
20946;DHT22;10632;51.276;7.116;2022-09-09T03:28:41;14.60;99.90
20946;DHT22;10632;51.276;7.116;2022-09-09T03:31:07;14.60;99.90
20946;DHT22;10632;51.276;7.116;2022-09-09T03:33:37;14.60;99.90
20946;DHT22;10632;51.276;7.116;2022-09-09T03:39:06;14.60;99.90
20946;DHT22;10632;51.276;7.116;2022-09-09T03:41:35;14.50;99.90
20946;DHT22;10632;51.276;7.116;2022-09-09T03:44:03;14.50;99.90
20946;DHT22;10632;51.276;7.116;2022-09-09T03:46:29;14.50;99.90
20946;DHT22;10632;51.276;7.116;2022-09-09T03:48:58;14.50;99.90
20946;DHT22;10632;51.276;7.116;2022-09-09T03:51:27;14.60;99.90
20946;DHT22;10632;51.276;7.116;2022-09-09T03:54:01;14.60;99.90
20946;DHT22;10632;51.276;7.116;2022-09-09T03:56:32;14.50;99.90
20946;DHT22;10632;51.276;7.116;2022-09-09T03:58:59;14.50;99.90
20946;DHT22;10632;51.276;7.116;2022-09-09T04:01:32;14.60;99.90
20946;DHT22;10632;51.276;7.116;2022-09-09T04:04:13;14.60;99.90
20946;DHT22;10632;51.276;7.116;2022-09-09T04:06:40;14.50;99.90
20946;DHT22;10632;51.276;7.116;2022-09-09T04:09:17;14.50;99.90
20946;DHT22;10632;51.276;7.116;2022-09-09T04:11:49;14.50;99.90
20946;DHT22;10632;51.276;7.116;2022-09-09T04:14:16;14.50;99.90
20946;DHT22;10632;51.276;7.116;2022-09-09T04:16:43;14.50;99.90
20946;DHT22;10632;51.276;7.116;2022-09-09T04:19:13;14.60;99.90
20946;DHT22;10632;51.276;7.116;2022-09-09T04:21:40;14.60;99.90
20946;DHT22;10632;51.276;7.116;2022-09-09T04:24:08;14.60;99.90
20946;DHT22;10632;51.276;7.116;2022-09-09T04:26:41;14.60;99.90
20946;DHT22;10632;51.276;7.116;2022-09-09T04:29:19;14.60;99.90
20946;DHT22;10632;51.276;7.116;2022-09-09T04:31:51;14.60;99.90
20946;DHT22;10632;51.276;7.116;2022-09-09T04:34:22;14.60;99.90
20946;DHT22;10632;51.276;7.116;2022-09-09T04:36:58;14.60;99.90
20946;DHT22;10632;51.276;7.116;2022-09-09T04:39:28;14.60;99.90
20946;DHT22;10632;51.276;7.116;2022-09-09T04:42:09;14.60;99.90
20946;DHT22;10632;51.276;7.116;2022-09-09T04:44:44;14.60;99.90
20946;DHT22;10632;51.276;7.116;2022-09-09T04:47:11;14.60;99.90
20946;DHT22;10632;51.276;7.116;2022-09-09T04:49:41;14.70;99.90
20946;DHT22;10632;51.276;7.116;2022-09-09T04:52:08;14.60;99.90
20946;DHT22;10632;51.276;7.116;2022-09-09T04:54:44;14.60;99.90
20946;DHT22;10632;51.276;7.116;2022-09-09T04:57:15;14.60;99.90
20946;DHT22;10632;51.276;7.116;2022-09-09T04:59:45;14.70;99.90
20946;DHT22;10632;51.276;7.116;2022-09-09T05:02:18;14.70;99.90
20946;DHT22;10632;51.276;7.116;2022-09-09T05:04:46;14.70;99.90
20946;DHT22;10632;51.276;7.116;2022-09-09T05:07:15;14.70;99.90
20946;DHT22;10632;51.276;7.116;2022-09-09T05:09:42;14.80;99.90
20946;DHT22;10632;51.276;7.116;2022-09-09T05:12:22;14.90;99.90
20946;DHT22;10632;51.276;7.116;2022-09-09T05:14:51;14.90;99.90
20946;DHT22;10632;51.276;7.116;2022-09-09T05:17:23;14.90;99.90
20946;DHT22;10632;51.276;7.116;2022-09-09T05:19:51;14.80;99.90
20946;DHT22;10632;51.276;7.116;2022-09-09T05:22:26;14.80;99.90
20946;DHT22;10632;51.276;7.116;2022-09-09T05:24:58;14.80;99.90
20946;DHT22;10632;51.276;7.116;2022-09-09T05:27:28;14.80;99.90
20946;DHT22;10632;51.276;7.116;2022-09-09T05:30:00;14.80;99.90
20946;DHT22;10632;51.276;7.116;2022-09-09T05:32:29;14.80;99.90
20946;DHT22;10632;51.276;7.116;2022-09-09T05:35:06;14.80;99.90
20946;DHT22;10632;51.276;7.116;2022-09-09T05:37:35;14.80;99.90
20946;DHT22;10632;51.276;7.116;2022-09-09T05:40:03;14.80;99.90
20946;DHT22;10632;51.276;7.116;2022-09-09T05:42:30;14.80;99.90
20946;DHT22;10632;51.276;7.116;2022-09-09T05:45:00;14.90;99.90
20946;DHT22;10632;51.276;7.116;2022-09-09T05:47:32;14.80;99.90
20946;DHT22;10632;51.276;7.116;2022-09-09T05:50:05;14.90;99.90
20946;DHT22;10632;51.276;7.116;2022-09-09T05:52:35;14.90;99.90
20946;DHT22;10632;51.276;7.116;2022-09-09T05:55:05;14.90;99.90
20946;DHT22;10632;51.276;7.116;2022-09-09T05:57:33;14.90;99.90
20946;DHT22;10632;51.276;7.116;2022-09-09T06:00:06;14.90;99.90
20946;DHT22;10632;51.276;7.116;2022-09-09T06:02:33;14.90;99.90
20946;DHT22;10632;51.276;7.116;2022-09-09T06:05:13;14.90;99.90
20946;DHT22;10632;51.276;7.116;2022-09-09T06:07:43;15.00;99.90
20946;DHT22;10632;51.276;7.116;2022-09-09T06:10:13;15.00;99.90
20946;DHT22;10632;51.276;7.116;2022-09-09T06:12:43;15.00;99.90
20946;DHT22;10632;51.276;7.116;2022-09-09T06:15:14;14.90;99.90
20946;DHT22;10632;51.276;7.116;2022-09-09T06:17:44;14.90;99.90
20946;DHT22;10632;51.276;7.116;2022-09-09T06:20:23;14.90;99.90
20946;DHT22;10632;51.276;7.116;2022-09-09T06:22:53;15.00;99.90
20946;DHT22;10632;51.276;7.116;2022-09-09T06:25:24;15.00;99.90
20946;DHT22;10632;51.276;7.116;2022-09-09T06:27:51;15.00;99.90
20946;DHT22;10632;51.276;7.116;2022-09-09T06:30:30;15.00;99.90
20946;DHT22;10632;51.276;7.116;2022-09-09T06:32:57;15.00;99.90
20946;DHT22;10632;51.276;7.116;2022-09-09T06:35:25;15.00;99.90
20946;DHT22;10632;51.276;7.116;2022-09-09T06:37:55;15.00;99.90
20946;DHT22;10632;51.276;7.116;2022-09-09T06:40:25;15.00;99.90
20946;DHT22;10632;51.276;7.116;2022-09-09T06:42:52;15.00;99.90
20946;DHT22;10632;51.276;7.116;2022-09-09T06:45:28;15.00;99.90
20946;DHT22;10632;51.276;7.116;2022-09-09T06:47:56;15.00;99.90
20946;DHT22;10632;51.276;7.116;2022-09-09T06:50:27;15.00;99.90
20946;DHT22;10632;51.276;7.116;2022-09-09T06:52:57;15.00;99.90
20946;DHT22;10632;51.276;7.116;2022-09-09T06:55:26;15.00;99.90
20946;DHT22;10632;51.276;7.116;2022-09-09T06:57:56;15.00;99.90
20946;DHT22;10632;51.276;7.116;2022-09-09T07:00:28;15.00;99.90
20946;DHT22;10632;51.276;7.116;2022-09-09T07:02:58;15.00;99.90
20946;DHT22;10632;51.276;7.116;2022-09-09T07:05:27;15.00;99.90
20946;DHT22;10632;51.276;7.116;2022-09-09T07:07:57;15.00;99.90
20946;DHT22;10632;51.276;7.116;2022-09-09T07:10:32;15.00;99.90
20946;DHT22;10632;51.276;7.116;2022-09-09T07:13:03;15.00;99.90
20946;DHT22;10632;51.276;7.116;2022-09-09T07:15:33;15.00;99.90
20946;DHT22;10632;51.276;7.116;2022-09-09T07:18:04;15.10;99.90
20946;DHT22;10632;51.276;7.116;2022-09-09T07:20:32;15.10;99.90
20946;DHT22;10632;51.276;7.116;2022-09-09T07:23:02;15.10;99.90
20946;DHT22;10632;51.276;7.116;2022-09-09T07:25:31;15.20;99.90
20946;DHT22;10632;51.276;7.116;2022-09-09T07:28:03;15.20;99.90
20946;DHT22;10632;51.276;7.116;2022-09-09T07:30:36;15.30;99.90
20946;DHT22;10632;51.276;7.116;2022-09-09T07:33:13;15.30;99.90
20946;DHT22;10632;51.276;7.116;2022-09-09T07:35:41;15.40;99.90
20946;DHT22;10632;51.276;7.116;2022-09-09T07:38:11;15.50;99.90
20946;DHT22;10632;51.276;7.116;2022-09-09T07:40:50;15.50;99.90
20946;DHT22;10632;51.276;7.116;2022-09-09T07:43:26;15.50;99.90
20946;DHT22;10632;51.276;7.116;2022-09-09T07:45:59;15.50;99.90
20946;DHT22;10632;51.276;7.116;2022-09-09T07:48:30;15.60;99.90
20946;DHT22;10632;51.276;7.116;2022-09-09T07:51:15;15.60;99.90
20946;DHT22;10632;51.276;7.116;2022-09-09T07:53:55;15.60;99.90
20946;DHT22;10632;51.276;7.116;2022-09-09T07:56:25;15.60;99.90
20946;DHT22;10632;51.276;7.116;2022-09-09T07:59:05;15.70;99.90
20946;DHT22;10632;51.276;7.116;2022-09-09T08:01:44;15.70;99.90
20946;DHT22;10632;51.276;7.116;2022-09-09T08:04:16;15.70;99.90
20946;DHT22;10632;51.276;7.116;2022-09-09T08:06:47;15.80;99.90
20946;DHT22;10632;51.276;7.116;2022-09-09T08:09:35;15.80;99.90
20946;DHT22;10632;51.276;7.116;2022-09-09T08:12:07;15.80;99.90
20946;DHT22;10632;51.276;7.116;2022-09-09T08:14:56;15.90;99.90
20946;DHT22;10632;51.276;7.116;2022-09-09T08:17:32;15.90;99.90
20946;DHT22;10632;51.276;7.116;2022-09-09T08:20:13;16.10;99.90
20946;DHT22;10632;51.276;7.116;2022-09-09T08:22:51;16.10;99.90
20946;DHT22;10632;51.276;7.116;2022-09-09T08:25:27;16.20;99.90
20946;DHT22;10632;51.276;7.116;2022-09-09T08:27:57;16.30;99.90
20946;DHT22;10632;51.276;7.116;2022-09-09T08:30:28;16.30;99.90
20946;DHT22;10632;51.276;7.116;2022-09-09T08:33:13;16.40;99.90
20946;DHT22;10632;51.276;7.116;2022-09-09T08:35:53;16.40;99.90
20946;DHT22;10632;51.276;7.116;2022-09-09T08:38:50;16.50;99.90
20946;DHT22;10632;51.276;7.116;2022-09-09T08:44:23;16.70;99.90
20946;DHT22;10632;51.276;7.116;2022-09-09T08:47:10;16.80;99.90
20946;DHT22;10632;51.276;7.116;2022-09-09T08:49:55;16.90;99.90
20946;DHT22;10632;51.276;7.116;2022-09-09T08:52:50;16.90;99.90
20946;DHT22;10632;51.276;7.116;2022-09-09T08:55:27;16.90;99.90
20946;DHT22;10632;51.276;7.116;2022-09-09T08:57:58;16.90;99.90
20946;DHT22;10632;51.276;7.116;2022-09-09T09:00:47;16.80;99.90
20946;DHT22;10632;51.276;7.116;2022-09-09T09:03:33;16.80;99.90
20946;DHT22;10632;51.276;7.116;2022-09-09T09:06:15;16.80;99.90
20946;DHT22;10632;51.276;7.116;2022-09-09T09:08:59;16.80;99.90
20946;DHT22;10632;51.276;7.116;2022-09-09T09:11:38;16.80;99.90
20946;DHT22;10632;51.276;7.116;2022-09-09T09:14:15;16.80;99.90
20946;DHT22;10632;51.276;7.116;2022-09-09T09:16:53;16.80;99.90
20946;DHT22;10632;51.276;7.116;2022-09-09T09:19:26;16.90;99.90
20946;DHT22;10632;51.276;7.116;2022-09-09T09:21:59;16.90;99.90
20946;DHT22;10632;51.276;7.116;2022-09-09T09:24:38;16.90;99.90
20946;DHT22;10632;51.276;7.116;2022-09-09T09:27:12;17.00;99.90
20946;DHT22;10632;51.276;7.116;2022-09-09T09:29:40;17.00;99.90
20946;DHT22;10632;51.276;7.116;2022-09-09T09:32:13;17.10;99.90
20946;DHT22;10632;51.276;7.116;2022-09-09T09:34:42;17.10;99.90
20946;DHT22;10632;51.276;7.116;2022-09-09T09:37:17;17.10;99.90
20946;DHT22;10632;51.276;7.116;2022-09-09T09:39:49;17.10;99.90
20946;DHT22;10632;51.276;7.116;2022-09-09T09:42:18;17.20;99.90
20946;DHT22;10632;51.276;7.116;2022-09-09T09:44:45;17.20;99.90
20946;DHT22;10632;51.276;7.116;2022-09-09T09:47:14;17.20;99.90
20946;DHT22;10632;51.276;7.116;2022-09-09T09:49:51;17.20;99.90
20946;DHT22;10632;51.276;7.116;2022-09-09T09:52:22;17.20;99.90
20946;DHT22;10632;51.276;7.116;2022-09-09T09:54:50;17.30;99.90
20946;DHT22;10632;51.276;7.116;2022-09-09T09:57:26;17.20;99.90
20946;DHT22;10632;51.276;7.116;2022-09-09T10:00:12;17.20;99.90
20946;DHT22;10632;51.276;7.116;2022-09-09T10:02:41;17.30;99.90
20946;DHT22;10632;51.276;7.116;2022-09-09T10:05:14;17.30;99.90
20946;DHT22;10632;51.276;7.116;2022-09-09T10:07:42;17.30;99.90
20946;DHT22;10632;51.276;7.116;2022-09-09T10:10:15;17.30;99.90
20946;DHT22;10632;51.276;7.116;2022-09-09T10:12:53;17.30;99.90
20946;DHT22;10632;51.276;7.116;2022-09-09T10:15:32;17.40;99.90
20946;DHT22;10632;51.276;7.116;2022-09-09T10:18:18;17.50;99.90
20946;DHT22;10632;51.276;7.116;2022-09-09T10:20:53;17.60;99.90
20946;DHT22;10632;51.276;7.116;2022-09-09T10:23:32;17.70;99.90
20946;DHT22;10632;51.276;7.116;2022-09-09T10:26:18;17.90;99.90
20946;DHT22;10632;51.276;7.116;2022-09-09T10:29:06;18.10;99.90
20946;DHT22;10632;51.276;7.116;2022-09-09T10:31:44;18.30;99.90
20946;DHT22;10632;51.276;7.116;2022-09-09T10:34:33;18.40;99.90
20946;DHT22;10632;51.276;7.116;2022-09-09T10:37:07;18.30;99.90
20946;DHT22;10632;51.276;7.116;2022-09-09T10:39:41;18.30;99.90
20946;DHT22;10632;51.276;7.116;2022-09-09T10:42:09;18.20;99.90
20946;DHT22;10632;51.276;7.116;2022-09-09T10:44:50;18.20;99.90
20946;DHT22;10632;51.276;7.116;2022-09-09T10:47:43;18.20;99.90
20946;DHT22;10632;51.276;7.116;2022-09-09T10:50:36;18.20;99.90
20946;DHT22;10632;51.276;7.116;2022-09-09T10:53:14;18.20;99.90
20946;DHT22;10632;51.276;7.116;2022-09-09T10:55:44;18.20;99.90
20946;DHT22;10632;51.276;7.116;2022-09-09T10:58:15;18.30;99.90
20946;DHT22;10632;51.276;7.116;2022-09-09T11:00:51;18.30;99.90
20946;DHT22;10632;51.276;7.116;2022-09-09T11:03:25;18.30;99.90
20946;DHT22;10632;51.276;7.116;2022-09-09T11:05:56;18.40;99.90
20946;DHT22;10632;51.276;7.116;2022-09-09T11:08:26;18.50;99.90
20946;DHT22;10632;51.276;7.116;2022-09-09T11:10:58;18.50;99.90
20946;DHT22;10632;51.276;7.116;2022-09-09T11:13:33;18.60;99.90
20946;DHT22;10632;51.276;7.116;2022-09-09T11:16:17;18.50;99.90
20946;DHT22;10632;51.276;7.116;2022-09-09T11:18:47;18.50;99.90
20946;DHT22;10632;51.276;7.116;2022-09-09T11:21:18;18.50;99.90
20946;DHT22;10632;51.276;7.116;2022-09-09T11:23:51;18.50;99.90
20946;DHT22;10632;51.276;7.116;2022-09-09T11:26:25;18.50;99.90
20946;DHT22;10632;51.276;7.116;2022-09-09T11:29:15;18.50;99.90
20946;DHT22;10632;51.276;7.116;2022-09-09T11:31:57;18.50;99.90
20946;DHT22;10632;51.276;7.116;2022-09-09T11:34:44;18.40;99.90
20946;DHT22;10632;51.276;7.116;2022-09-09T11:37:29;18.40;99.90
20946;DHT22;10632;51.276;7.116;2022-09-09T11:40:22;18.40;99.90
20946;DHT22;10632;51.276;7.116;2022-09-09T11:43:02;18.50;99.90
20946;DHT22;10632;51.276;7.116;2022-09-09T11:45:32;18.50;99.90
20946;DHT22;10632;51.276;7.116;2022-09-09T11:48:01;18.50;99.90
20946;DHT22;10632;51.276;7.116;2022-09-09T11:50:33;18.50;99.90
20946;DHT22;10632;51.276;7.116;2022-09-09T11:53:14;18.50;99.90
20946;DHT22;10632;51.276;7.116;2022-09-09T11:55:45;18.40;99.90
20946;DHT22;10632;51.276;7.116;2022-09-09T11:58:17;18.20;99.90
20946;DHT22;10632;51.276;7.116;2022-09-09T12:00:47;18.00;99.90
20946;DHT22;10632;51.276;7.116;2022-09-09T12:03:34;17.90;99.90
20946;DHT22;10632;51.276;7.116;2022-09-09T12:06:11;17.70;99.90
20946;DHT22;10632;51.276;7.116;2022-09-09T12:08:42;17.50;99.90
20946;DHT22;10632;51.276;7.116;2022-09-09T12:11:10;17.30;99.90
20946;DHT22;10632;51.276;7.116;2022-09-09T12:13:37;17.30;99.90
20946;DHT22;10632;51.276;7.116;2022-09-09T12:16:04;17.40;99.90
20946;DHT22;10632;51.276;7.116;2022-09-09T12:18:35;17.40;99.90
20946;DHT22;10632;51.276;7.116;2022-09-09T12:21:10;17.30;99.90
20946;DHT22;10632;51.276;7.116;2022-09-09T12:23:45;17.20;99.90
20946;DHT22;10632;51.276;7.116;2022-09-09T12:26:28;17.20;99.90
20946;DHT22;10632;51.276;7.116;2022-09-09T12:29:08;17.10;99.90
20946;DHT22;10632;51.276;7.116;2022-09-09T12:31:42;17.00;99.90
20946;DHT22;10632;51.276;7.116;2022-09-09T12:34:16;17.00;99.90
20946;DHT22;10632;51.276;7.116;2022-09-09T12:36:44;17.00;99.90
20946;DHT22;10632;51.276;7.116;2022-09-09T12:39:22;17.00;99.90
20946;DHT22;10632;51.276;7.116;2022-09-09T12:41:52;17.00;99.90
20946;DHT22;10632;51.276;7.116;2022-09-09T12:44:23;17.00;99.90
20946;DHT22;10632;51.276;7.116;2022-09-09T12:46:54;16.90;99.90
20946;DHT22;10632;51.276;7.116;2022-09-09T12:49:30;16.80;99.90
20946;DHT22;10632;51.276;7.116;2022-09-09T12:52:01;16.80;99.90
20946;DHT22;10632;51.276;7.116;2022-09-09T12:54:29;16.90;99.90
20946;DHT22;10632;51.276;7.116;2022-09-09T12:56:56;17.10;99.90
20946;DHT22;10632;51.276;7.116;2022-09-09T12:59:25;17.30;99.90
20946;DHT22;10632;51.276;7.116;2022-09-09T13:01:56;17.50;99.90
20946;DHT22;10632;51.276;7.116;2022-09-09T13:04:23;17.60;99.90
20946;DHT22;10632;51.276;7.116;2022-09-09T13:06:52;17.80;99.90
20946;DHT22;10632;51.276;7.116;2022-09-09T13:09:19;18.10;99.90
20946;DHT22;10632;51.276;7.116;2022-09-09T13:11:48;18.30;99.90
20946;DHT22;10632;51.276;7.116;2022-09-09T13:14:17;18.30;99.90
20946;DHT22;10632;51.276;7.116;2022-09-09T13:16:55;18.20;99.90
20946;DHT22;10632;51.276;7.116;2022-09-09T13:19:23;18.00;99.90
20946;DHT22;10632;51.276;7.116;2022-09-09T13:21:55;17.80;99.90
20946;DHT22;10632;51.276;7.116;2022-09-09T13:24:31;17.60;99.90
20946;DHT22;10632;51.276;7.116;2022-09-09T13:27:00;17.40;99.90
20946;DHT22;10632;51.276;7.116;2022-09-09T13:29:28;17.20;99.90
20946;DHT22;10632;51.276;7.116;2022-09-09T13:32:04;16.90;99.90
20946;DHT22;10632;51.276;7.116;2022-09-09T13:34:34;16.70;99.90
20946;DHT22;10632;51.276;7.116;2022-09-09T13:37:05;16.50;99.90
20946;DHT22;10632;51.276;7.116;2022-09-09T13:39:34;16.30;99.90
20946;DHT22;10632;51.276;7.116;2022-09-09T13:42:02;16.20;99.90
20946;DHT22;10632;51.276;7.116;2022-09-09T13:44:34;16.10;99.90
20946;DHT22;10632;51.276;7.116;2022-09-09T13:47:04;16.00;99.90
20946;DHT22;10632;51.276;7.116;2022-09-09T13:49:32;16.00;99.90
20946;DHT22;10632;51.276;7.116;2022-09-09T13:52:10;16.00;99.90
20946;DHT22;10632;51.276;7.116;2022-09-09T13:54:39;16.00;99.90
20946;DHT22;10632;51.276;7.116;2022-09-09T13:57:15;16.00;99.90
20946;DHT22;10632;51.276;7.116;2022-09-09T13:59:44;16.00;99.90
20946;DHT22;10632;51.276;7.116;2022-09-09T14:02:11;16.10;99.90
20946;DHT22;10632;51.276;7.116;2022-09-09T14:04:38;16.10;99.90
20946;DHT22;10632;51.276;7.116;2022-09-09T14:07:11;16.20;99.90
20946;DHT22;10632;51.276;7.116;2022-09-09T14:09:39;16.30;99.90
20946;DHT22;10632;51.276;7.116;2022-09-09T14:12:09;16.40;99.90
20946;DHT22;10632;51.276;7.116;2022-09-09T14:14:36;16.40;99.90
20946;DHT22;10632;51.276;7.116;2022-09-09T14:17:03;16.50;99.90
20946;DHT22;10632;51.276;7.116;2022-09-09T14:19:30;16.50;99.90
20946;DHT22;10632;51.276;7.116;2022-09-09T14:21:57;16.60;99.90
20946;DHT22;10632;51.276;7.116;2022-09-09T14:24:26;16.60;99.90
20946;DHT22;10632;51.276;7.116;2022-09-09T14:26:53;16.60;99.90
20946;DHT22;10632;51.276;7.116;2022-09-09T14:29:20;16.60;99.90
20946;DHT22;10632;51.276;7.116;2022-09-09T14:31:47;16.60;99.90
20946;DHT22;10632;51.276;7.116;2022-09-09T14:34:14;16.60;99.90
20946;DHT22;10632;51.276;7.116;2022-09-09T14:36:41;16.70;99.90
20946;DHT22;10632;51.276;7.116;2022-09-09T14:39:07;16.80;99.90
20946;DHT22;10632;51.276;7.116;2022-09-09T14:41:36;16.90;99.90
20946;DHT22;10632;51.276;7.116;2022-09-09T14:44:03;17.00;99.90
20946;DHT22;10632;51.276;7.116;2022-09-09T14:46:30;17.10;99.90
20946;DHT22;10632;51.276;7.116;2022-09-09T14:49:00;17.20;99.90
20946;DHT22;10632;51.276;7.116;2022-09-09T14:51:27;17.20;99.90
20946;DHT22;10632;51.276;7.116;2022-09-09T14:53:55;17.20;99.90
20946;DHT22;10632;51.276;7.116;2022-09-09T14:56:24;17.20;99.90
20946;DHT22;10632;51.276;7.116;2022-09-09T14:58:54;17.20;99.90
20946;DHT22;10632;51.276;7.116;2022-09-09T15:01:22;17.20;99.90
20946;DHT22;10632;51.276;7.116;2022-09-09T15:03:51;17.20;99.90
20946;DHT22;10632;51.276;7.116;2022-09-09T15:06:18;17.10;99.90
20946;DHT22;10632;51.276;7.116;2022-09-09T15:08:46;17.00;99.90
20946;DHT22;10632;51.276;7.116;2022-09-09T15:11:14;17.00;99.90
20946;DHT22;10632;51.276;7.116;2022-09-09T15:13:42;16.90;99.90
20946;DHT22;10632;51.276;7.116;2022-09-09T15:16:12;16.80;99.90
20946;DHT22;10632;51.276;7.116;2022-09-09T15:18:40;16.60;99.90
20946;DHT22;10632;51.276;7.116;2022-09-09T15:21:09;16.20;99.90
20946;DHT22;10632;51.276;7.116;2022-09-09T15:23:36;15.80;99.90
20946;DHT22;10632;51.276;7.116;2022-09-09T15:26:04;15.40;99.90
20946;DHT22;10632;51.276;7.116;2022-09-09T15:28:32;15.00;99.90
20946;DHT22;10632;51.276;7.116;2022-09-09T15:31:06;14.80;99.90
20946;DHT22;10632;51.276;7.116;2022-09-09T15:33:35;14.60;99.90
20946;DHT22;10632;51.276;7.116;2022-09-09T15:36:13;14.40;99.90
20946;DHT22;10632;51.276;7.116;2022-09-09T15:38:40;14.40;99.90
20946;DHT22;10632;51.276;7.116;2022-09-09T15:41:07;14.30;99.90
20946;DHT22;10632;51.276;7.116;2022-09-09T15:43:34;14.30;99.90
20946;DHT22;10632;51.276;7.116;2022-09-09T15:46:13;14.30;99.90
20946;DHT22;10632;51.276;7.116;2022-09-09T15:48:51;14.20;99.90
20946;DHT22;10632;51.276;7.116;2022-09-09T15:51:18;14.20;99.90
20946;DHT22;10632;51.276;7.116;2022-09-09T15:53:45;14.20;99.90
20946;DHT22;10632;51.276;7.116;2022-09-09T15:56:13;14.30;99.90
20946;DHT22;10632;51.276;7.116;2022-09-09T15:58:39;14.30;99.90
20946;DHT22;10632;51.276;7.116;2022-09-09T16:01:09;14.30;99.90
20946;DHT22;10632;51.276;7.116;2022-09-09T16:03:39;14.40;99.90
20946;DHT22;10632;51.276;7.116;2022-09-09T16:06:09;14.40;99.90
20946;DHT22;10632;51.276;7.116;2022-09-09T16:08:38;14.40;99.90
20946;DHT22;10632;51.276;7.116;2022-09-09T16:11:06;14.50;99.90